sensor_id;sensor_type;location;lat;lon;timestamp;pressure;altitude;pressure_sealevel;temperature;humidity
7168;BME280;3625;51.762;14.320;2023-07-16T00:02:18;99866.72;;;25.03;58.35
7168;BME280;3625;51.762;14.320;2023-07-16T00:04:49;99854.16;;;24.92;58.46
7168;BME280;3625;51.762;14.320;2023-07-16T00:07:18;99851.84;;;24.88;59.67
7168;BME280;3625;51.762;14.320;2023-07-16T00:09:47;99839.31;;;24.87;59.94
7168;BME280;3625;51.762;14.320;2023-07-16T00:12:15;99838.28;;;24.78;60.63
7168;BME280;3625;51.762;14.320;2023-07-16T00:14:44;99845.41;;;24.69;61.10
7168;BME280;3625;51.762;14.320;2023-07-16T00:17:12;99845.06;;;24.53;60.80
7168;BME280;3625;51.762;14.320;2023-07-16T00:19:41;99848.59;;;24.44;62.38
7168;BME280;3625;51.762;14.320;2023-07-16T00:22:09;99839.72;;;24.32;62.91
7168;BME280;3625;51.762;14.320;2023-07-16T00:24:39;99851.94;;;24.27;62.48
7168;BME280;3625;51.762;14.320;2023-07-16T00:27:08;99863.03;;;24.24;62.46
7168;BME280;3625;51.762;14.320;2023-07-16T00:29:36;99881.72;;;24.16;62.01
7168;BME280;3625;51.762;14.320;2023-07-16T00:32:05;99886.84;;;24.09;62.36
7168;BME280;3625;51.762;14.320;2023-07-16T00:34:34;99897.66;;;24.09;62.36
7168;BME280;3625;51.762;14.320;2023-07-16T00:37:03;99907.84;;;24.05;62.15
7168;BME280;3625;51.762;14.320;2023-07-16T00:39:32;99907.41;;;24.00;62.25
7168;BME280;3625;51.762;14.320;2023-07-16T00:42:02;99916.25;;;24.02;62.65
7168;BME280;3625;51.762;14.320;2023-07-16T00:44:30;99891.38;;;23.88;62.54
7168;BME280;3625;51.762;14.320;2023-07-16T00:46:59;99920.50;;;24.05;62.39
7168;BME280;3625;51.762;14.320;2023-07-16T00:49:29;99923.94;;;24.07;62.24
7168;BME280;3625;51.762;14.320;2023-07-16T00:52:00;99929.22;;;24.08;62.62
7168;BME280;3625;51.762;14.320;2023-07-16T00:54:30;99963.94;;;24.13;63.89
7168;BME280;3625;51.762;14.320;2023-07-16T00:57:00;100021.94;;;24.41;66.26
7168;BME280;3625;51.762;14.320;2023-07-16T00:59:29;100056.38;;;24.39;66.58
7168;BME280;3625;51.762;14.320;2023-07-16T01:01:58;100112.56;;;24.35;66.80
7168;BME280;3625;51.762;14.320;2023-07-16T01:04:27;100130.19;;;24.30;66.36
7168;BME280;3625;51.762;14.320;2023-07-16T01:07:03;100135.34;;;24.22;66.80
7168;BME280;3625;51.762;14.320;2023-07-16T01:09:41;100098.34;;;23.90;67.72
7168;BME280;3625;51.762;14.320;2023-07-16T01:12:14;100077.25;;;23.73;69.26
7168;BME280;3625;51.762;14.320;2023-07-16T01:14:45;100143.84;;;24.17;70.76
7168;BME280;3625;51.762;14.320;2023-07-16T01:17:14;100086.09;;;23.86;70.78
7168;BME280;3625;51.762;14.320;2023-07-16T01:19:49;100144.16;;;24.35;70.90
7168;BME280;3625;51.762;14.320;2023-07-16T01:22:52;100125.28;;;24.24;70.85
7168;BME280;3625;51.762;14.320;2023-07-16T01:25:52;100130.31;;;24.17;70.49
7168;BME280;3625;51.762;14.320;2023-07-16T01:28:48;100172.56;;;24.61;69.55
7168;BME280;3625;51.762;14.320;2023-07-16T01:31:23;100119.50;;;24.28;69.56
7168;BME280;3625;51.762;14.320;2023-07-16T01:33:53;100169.78;;;24.52;69.65
7168;BME280;3625;51.762;14.320;2023-07-16T01:36:24;100072.19;;;23.91;69.85
7168;BME280;3625;51.762;14.320;2023-07-16T01:38:58;100168.84;;;24.41;69.93
7168;BME280;3625;51.762;14.320;2023-07-16T01:41:28;100060.06;;;23.74;70.61
7168;BME280;3625;51.762;14.320;2023-07-16T01:43:57;100209.63;;;24.50;70.69
7168;BME280;3625;51.762;14.320;2023-07-16T01:46:31;100199.31;;;24.43;71.07
7168;BME280;3625;51.762;14.320;2023-07-16T01:49:00;100190.56;;;24.51;72.18
7168;BME280;3625;51.762;14.320;2023-07-16T01:51:28;100181.00;;;24.47;71.80
7168;BME280;3625;51.762;14.320;2023-07-16T01:53:57;100147.00;;;24.33;71.07
7168;BME280;3625;51.762;14.320;2023-07-16T01:56:25;100179.41;;;24.44;71.36
7168;BME280;3625;51.762;14.320;2023-07-16T01:58:54;100177.94;;;24.40;71.39
7168;BME280;3625;51.762;14.320;2023-07-16T02:01:22;100177.06;;;24.40;70.83
7168;BME280;3625;51.762;14.320;2023-07-16T02:03:52;100132.41;;;24.14;70.34
7168;BME280;3625;51.762;14.320;2023-07-16T02:06:21;100168.97;;;24.40;69.68
7168;BME280;3625;51.762;14.320;2023-07-16T02:08:50;100168.59;;;24.44;69.19
7168;BME280;3625;51.762;14.320;2023-07-16T02:11:18;100158.88;;;24.42;68.92
7168;BME280;3625;51.762;14.320;2023-07-16T02:13:48;100157.56;;;24.36;68.72
7168;BME280;3625;51.762;14.320;2023-07-16T02:16:16;100158.41;;;24.37;68.61
7168;BME280;3625;51.762;14.320;2023-07-16T02:18:45;100163.63;;;24.29;68.83
7168;BME280;3625;51.762;14.320;2023-07-16T02:21:15;100165.72;;;24.25;69.25
7168;BME280;3625;51.762;14.320;2023-07-16T02:23:54;100158.09;;;24.19;69.46
7168;BME280;3625;51.762;14.320;2023-07-16T02:26:25;99931.50;;;22.85;69.52
7168;BME280;3625;51.762;14.320;2023-07-16T02:28:56;100010.09;;;23.25;69.67
7168;BME280;3625;51.762;14.320;2023-07-16T02:31:26;100018.56;;;23.21;70.24
7168;BME280;3625;51.762;14.320;2023-07-16T02:33:56;100034.34;;;23.37;70.29
7168;BME280;3625;51.762;14.320;2023-07-16T02:36:36;99925.78;;;22.79;70.05
7168;BME280;3625;51.762;14.320;2023-07-16T02:39:10;100090.78;;;23.73;70.00
7168;BME280;3625;51.762;14.320;2023-07-16T02:41:38;100114.44;;;23.92;70.34
7168;BME280;3625;51.762;14.320;2023-07-16T02:44:09;100166.63;;;24.03;70.26
7168;BME280;3625;51.762;14.320;2023-07-16T02:46:42;100059.63;;;23.36;70.48
7168;BME280;3625;51.762;14.320;2023-07-16T02:49:11;99999.06;;;22.95;71.05
7168;BME280;3625;51.762;14.320;2023-07-16T02:51:43;99906.78;;;22.47;71.09
7168;BME280;3625;51.762;14.320;2023-07-16T02:54:11;99895.13;;;22.35;71.39
7168;BME280;3625;51.762;14.320;2023-07-16T02:56:43;99931.41;;;22.65;71.04
7168;BME280;3625;51.762;14.320;2023-07-16T02:59:15;100032.91;;;23.21;71.37
7168;BME280;3625;51.762;14.320;2023-07-16T03:01:59;100157.03;;;23.88;71.54
7168;BME280;3625;51.762;14.320;2023-07-16T03:04:29;100038.06;;;23.13;70.54
7168;BME280;3625;51.762;14.320;2023-07-16T03:07:08;99898.06;;;22.43;70.26
7168;BME280;3625;51.762;14.320;2023-07-16T03:09:38;100160.47;;;24.01;70.02
7168;BME280;3625;51.762;14.320;2023-07-16T03:12:10;99957.16;;;22.80;70.15
7168;BME280;3625;51.762;14.320;2023-07-16T03:14:40;99957.50;;;22.75;70.51
7168;BME280;3625;51.762;14.320;2023-07-16T03:17:13;100143.69;;;23.87;70.91
7168;BME280;3625;51.762;14.320;2023-07-16T03:19:51;100067.00;;;23.33;70.54
7168;BME280;3625;51.762;14.320;2023-07-16T03:22:36;99976.00;;;22.69;70.93
7168;BME280;3625;51.762;14.320;2023-07-16T03:25:14;100125.41;;;23.46;71.72
7168;BME280;3625;51.762;14.320;2023-07-16T03:27:51;100133.66;;;23.33;73.94
7168;BME280;3625;51.762;14.320;2023-07-16T03:30:24;100231.88;;;23.77;76.02
7168;BME280;3625;51.762;14.320;2023-07-16T03:32:55;100208.28;;;23.34;76.07
7168;BME280;3625;51.762;14.320;2023-07-16T03:35:26;100253.19;;;23.46;78.82
7168;BME280;3625;51.762;14.320;2023-07-16T03:38:01;100259.41;;;23.36;79.21
7168;BME280;3625;51.762;14.320;2023-07-16T03:40:37;100229.41;;;22.94;82.29
7168;BME280;3625;51.762;14.320;2023-07-16T03:43:10;100284.53;;;23.14;82.26
7168;BME280;3625;51.762;14.320;2023-07-16T03:45:38;100188.59;;;22.40;86.85
7168;BME280;3625;51.762;14.320;2023-07-16T03:48:07;100277.97;;;22.70;89.78
7168;BME280;3625;51.762;14.320;2023-07-16T03:50:36;100300.94;;;22.76;95.46
7168;BME280;3625;51.762;14.320;2023-07-16T03:53:07;100287.81;;;22.58;97.23
7168;BME280;3625;51.762;14.320;2023-07-16T03:55:36;100292.75;;;22.41;96.95
7168;BME280;3625;51.762;14.320;2023-07-16T03:58:06;100301.00;;;22.27;97.59
7168;BME280;3625;51.762;14.320;2023-07-16T04:00:35;100138.38;;;21.04;99.98
7168;BME280;3625;51.762;14.320;2023-07-16T04:03:03;100307.97;;;22.05;100.00
7168;BME280;3625;51.762;14.320;2023-07-16T04:05:35;100318.50;;;21.96;100.00
7168;BME280;3625;51.762;14.320;2023-07-16T04:08:07;100102.75;;;20.62;100.00
7168;BME280;3625;51.762;14.320;2023-07-16T04:10:36;100127.50;;;20.55;100.00
7168;BME280;3625;51.762;14.320;2023-07-16T04:13:11;100210.97;;;20.79;100.00
7168;BME280;3625;51.762;14.320;2023-07-16T04:15:44;100301.69;;;21.29;100.00
7168;BME280;3625;51.762;14.320;2023-07-16T04:18:13;100278.91;;;21.07;100.00
7168;BME280;3625;51.762;14.320;2023-07-16T04:20:45;100239.81;;;20.89;100.00
7168;BME280;3625;51.762;14.320;2023-07-16T04:23:24;100338.31;;;21.44;100.00
7168;BME280;3625;51.762;14.320;2023-07-16T04:25:53;100339.06;;;21.33;100.00
7168;BME280;3625;51.762;14.320;2023-07-16T04:28:22;100334.78;;;21.17;100.00
7168;BME280;3625;51.762;14.320;2023-07-16T04:30:50;100347.81;;;21.10;100.00
7168;BME280;3625;51.762;14.320;2023-07-16T04:33:19;100370.94;;;21.13;100.00
7168;BME280;3625;51.762;14.320;2023-07-16T04:35:48;100360.41;;;21.09;100.00
7168;BME280;3625;51.762;14.320;2023-07-16T04:38:19;100348.09;;;21.05;100.00
7168;BME280;3625;51.762;14.320;2023-07-16T04:40:47;100334.22;;;20.99;100.00
7168;BME280;3625;51.762;14.320;2023-07-16T04:43:16;100277.09;;;20.68;100.00
7168;BME280;3625;51.762;14.320;2023-07-16T04:45:44;100271.81;;;20.67;100.00
7168;BME280;3625;51.762;14.320;2023-07-16T04:48:17;100241.41;;;20.79;100.00
7168;BME280;3625;51.762;14.320;2023-07-16T04:50:45;100258.56;;;20.91;100.00
7168;BME280;3625;51.762;14.320;2023-07-16T04:53:22;100190.34;;;20.40;100.00
7168;BME280;3625;51.762;14.320;2023-07-16T04:55:55;100224.94;;;20.71;100.00
7168;BME280;3625;51.762;14.320;2023-07-16T04:58:24;100172.41;;;20.40;100.00
7168;BME280;3625;51.762;14.320;2023-07-16T05:00:53;100261.25;;;20.91;100.00
7168;BME280;3625;51.762;14.320;2023-07-16T05:03:44;100156.88;;;20.31;100.00
7168;BME280;3625;51.762;14.320;2023-07-16T05:06:12;100250.25;;;20.94;100.00
7168;BME280;3625;51.762;14.320;2023-07-16T05:08:43;100046.28;;;19.85;100.00
7168;BME280;3625;51.762;14.320;2023-07-16T05:11:14;100272.25;;;21.13;100.00
7168;BME280;3625;51.762;14.320;2023-07-16T05:13:43;100173.75;;;20.85;100.00
7168;BME280;3625;51.762;14.320;2023-07-16T05:16:15;100241.94;;;21.62;100.00
7168;BME280;3625;51.762;14.320;2023-07-16T05:19:00;100207.34;;;21.68;100.00
7168;BME280;3625;51.762;14.320;2023-07-16T05:21:29;99937.88;;;20.38;100.00
7168;BME280;3625;51.762;14.320;2023-07-16T05:23:59;100192.75;;;21.96;100.00
7168;BME280;3625;51.762;14.320;2023-07-16T05:26:28;100246.50;;;22.34;100.00
7168;BME280;3625;51.762;14.320;2023-07-16T05:28:57;100188.97;;;21.99;100.00
7168;BME280;3625;51.762;14.320;2023-07-16T05:31:26;100268.03;;;22.47;100.00
7168;BME280;3625;51.762;14.320;2023-07-16T05:33:58;100167.00;;;21.92;100.00
7168;BME280;3625;51.762;14.320;2023-07-16T05:36:27;100259.72;;;22.50;100.00
7168;BME280;3625;51.762;14.320;2023-07-16T05:38:59;100056.78;;;21.29;100.00
7168;BME280;3625;51.762;14.320;2023-07-16T05:41:27;100259.72;;;22.50;100.00
7168;BME280;3625;51.762;14.320;2023-07-16T05:43:56;100286.97;;;22.58;100.00
7168;BME280;3625;51.762;14.320;2023-07-16T05:46:26;100199.94;;;22.08;100.00
7168;BME280;3625;51.762;14.320;2023-07-16T05:49:01;100205.09;;;22.11;100.00
7168;BME280;3625;51.762;14.320;2023-07-16T05:51:30;100091.78;;;21.29;100.00
7168;BME280;3625;51.762;14.320;2023-07-16T05:54:00;100272.31;;;22.49;100.00
7168;BME280;3625;51.762;14.320;2023-07-16T05:56:28;100340.56;;;22.99;100.00
7168;BME280;3625;51.762;14.320;2023-07-16T05:58:57;100301.50;;;22.92;100.00
7168;BME280;3625;51.762;14.320;2023-07-16T06:01:26;100236.03;;;22.42;100.00
7168;BME280;3625;51.762;14.320;2023-07-16T06:03:55;100385.78;;;23.19;100.00
7168;BME280;3625;51.762;14.320;2023-07-16T06:06:24;100138.47;;;21.53;100.00
7168;BME280;3625;51.762;14.320;2023-07-16T06:08:52;100243.53;;;22.26;100.00
7168;BME280;3625;51.762;14.320;2023-07-16T06:11:23;100381.31;;;23.07;100.00
7168;BME280;3625;51.762;14.320;2023-07-16T06:13:53;100387.50;;;23.20;100.00
7168;BME280;3625;51.762;14.320;2023-07-16T06:16:22;100226.38;;;22.27;100.00
7168;BME280;3625;51.762;14.320;2023-07-16T06:18:51;100410.50;;;23.37;100.00
7168;BME280;3625;51.762;14.320;2023-07-16T06:21:22;100390.63;;;23.38;100.00
7168;BME280;3625;51.762;14.320;2023-07-16T06:23:51;100341.53;;;22.98;100.00
7168;BME280;3625;51.762;14.320;2023-07-16T06:26:22;100235.63;;;22.36;100.00
7168;BME280;3625;51.762;14.320;2023-07-16T06:28:51;100336.53;;;22.81;100.00
7168;BME280;3625;51.762;14.320;2023-07-16T06:31:20;100122.38;;;21.64;100.00
7168;BME280;3625;51.762;14.320;2023-07-16T06:33:51;100198.09;;;22.09;100.00
7168;BME280;3625;51.762;14.320;2023-07-16T06:36:20;100278.44;;;22.64;100.00
7168;BME280;3625;51.762;14.320;2023-07-16T06:38:50;100411.50;;;23.60;100.00
7168;BME280;3625;51.762;14.320;2023-07-16T06:41:18;100200.06;;;22.54;100.00
7168;BME280;3625;51.762;14.320;2023-07-16T06:43:48;100265.97;;;22.98;100.00
7168;BME280;3625;51.762;14.320;2023-07-16T06:46:17;100350.13;;;23.38;100.00
7168;BME280;3625;51.762;14.320;2023-07-16T06:48:48;100341.97;;;23.16;100.00
7168;BME280;3625;51.762;14.320;2023-07-16T06:51:18;100198.31;;;22.06;100.00
7168;BME280;3625;51.762;14.320;2023-07-16T06:53:49;100301.59;;;22.43;100.00
7168;BME280;3625;51.762;14.320;2023-07-16T06:56:18;100248.56;;;21.94;100.00
7168;BME280;3625;51.762;14.320;2023-07-16T06:58:48;100437.56;;;23.01;100.00
7168;BME280;3625;51.762;14.320;2023-07-16T07:01:17;100294.56;;;22.40;100.00
7168;BME280;3625;51.762;14.320;2023-07-16T07:03:46;100261.44;;;22.75;100.00
7168;BME280;3625;51.762;14.320;2023-07-16T07:06:15;100368.44;;;23.81;100.00
7168;BME280;3625;51.762;14.320;2023-07-16T07:08:44;100331.84;;;24.10;100.00
7168;BME280;3625;51.762;14.320;2023-07-16T07:11:13;100429.28;;;25.09;100.00
7168;BME280;3625;51.762;14.320;2023-07-16T07:13:44;100257.94;;;24.54;100.00
7168;BME280;3625;51.762;14.320;2023-07-16T07:16:14;100297.75;;;25.27;100.00
7168;BME280;3625;51.762;14.320;2023-07-16T07:18:44;100433.91;;;26.23;100.00
7168;BME280;3625;51.762;14.320;2023-07-16T07:21:12;100438.69;;;26.10;100.00
7168;BME280;3625;51.762;14.320;2023-07-16T07:23:42;100442.25;;;25.90;100.00
7168;BME280;3625;51.762;14.320;2023-07-16T07:26:10;100443.56;;;25.96;99.66
7168;BME280;3625;51.762;14.320;2023-07-16T07:28:39;100316.56;;;25.08;100.00
7168;BME280;3625;51.762;14.320;2023-07-16T07:31:10;100343.00;;;25.15;100.00
7168;BME280;3625;51.762;14.320;2023-07-16T07:33:40;100230.75;;;24.01;100.00
7168;BME280;3625;51.762;14.320;2023-07-16T07:36:09;100215.66;;;23.77;100.00
7168;BME280;3625;51.762;14.320;2023-07-16T07:38:40;100250.53;;;23.68;100.00
7168;BME280;3625;51.762;14.320;2023-07-16T07:41:09;100193.88;;;23.00;100.00
7168;BME280;3625;51.762;14.320;2023-07-16T07:43:38;100450.72;;;24.23;100.00
7168;BME280;3625;51.762;14.320;2023-07-16T07:46:06;100449.22;;;24.19;100.00
7168;BME280;3625;51.762;14.320;2023-07-16T07:48:35;100444.44;;;24.22;100.00
7168;BME280;3625;51.762;14.320;2023-07-16T07:51:04;100446.16;;;24.23;100.00
7168;BME280;3625;51.762;14.320;2023-07-16T07:53:34;100453.56;;;24.21;100.00
7168;BME280;3625;51.762;14.320;2023-07-16T07:56:03;100458.59;;;24.26;100.00
7168;BME280;3625;51.762;14.320;2023-07-16T07:58:32;100406.31;;;24.03;100.00
7168;BME280;3625;51.762;14.320;2023-07-16T08:01:05;100383.84;;;24.02;100.00
7168;BME280;3625;51.762;14.320;2023-07-16T08:03:35;100413.97;;;24.31;100.00
7168;BME280;3625;51.762;14.320;2023-07-16T08:06:05;100452.84;;;24.53;100.00
7168;BME280;3625;51.762;14.320;2023-07-16T08:08:34;100393.31;;;24.30;100.00
7168;BME280;3625;51.762;14.320;2023-07-16T08:11:03;100451.47;;;24.92;99.61
7168;BME280;3625;51.762;14.320;2023-07-16T08:13:32;100455.84;;;25.15;97.06
7168;BME280;3625;51.762;14.320;2023-07-16T08:16:00;100447.78;;;25.36;94.64
7168;BME280;3625;51.762;14.320;2023-07-16T08:18:29;100437.56;;;25.39;94.48
7168;BME280;3625;51.762;14.320;2023-07-16T08:20:58;100463.72;;;25.61;94.31
7168;BME280;3625;51.762;14.320;2023-07-16T08:23:28;100467.50;;;25.70;94.04
7168;BME280;3625;51.762;14.320;2023-07-16T08:25:56;100468.63;;;25.67;93.87
7168;BME280;3625;51.762;14.320;2023-07-16T08:28:25;100466.78;;;25.68;92.54
7168;BME280;3625;51.762;14.320;2023-07-16T08:30:54;100484.16;;;25.86;91.44
7168;BME280;3625;51.762;14.320;2023-07-16T08:33:23;100477.16;;;26.25;84.34
7168;BME280;3625;51.762;14.320;2023-07-16T08:35:51;100491.94;;;26.32;70.92
7168;BME280;3625;51.762;14.320;2023-07-16T08:38:20;100496.81;;;26.59;71.99
7168;BME280;3625;51.762;14.320;2023-07-16T08:40:50;100509.88;;;27.05;64.15
7168;BME280;3625;51.762;14.320;2023-07-16T08:43:20;100519.38;;;27.30;60.93
7168;BME280;3625;51.762;14.320;2023-07-16T08:45:49;100519.88;;;27.54;61.32
7168;BME280;3625;51.762;14.320;2023-07-16T08:48:18;100523.50;;;27.74;59.67
7168;BME280;3625;51.762;14.320;2023-07-16T08:50:48;100528.06;;;27.73;57.87
7168;BME280;3625;51.762;14.320;2023-07-16T08:53:18;100519.06;;;27.83;56.50
7168;BME280;3625;51.762;14.320;2023-07-16T08:55:49;100513.03;;;27.89;55.05
7168;BME280;3625;51.762;14.320;2023-07-16T08:58:24;100530.75;;;28.02;54.05
7168;BME280;3625;51.762;14.320;2023-07-16T09:00:54;100519.59;;;28.05;53.06
7168;BME280;3625;51.762;14.320;2023-07-16T09:03:24;100509.09;;;28.49;52.29
7168;BME280;3625;51.762;14.320;2023-07-16T09:05:54;100517.75;;;28.81;51.56
7168;BME280;3625;51.762;14.320;2023-07-16T09:08:23;100470.25;;;28.47;48.94
7168;BME280;3625;51.762;14.320;2023-07-16T09:10:58;100526.69;;;28.54;48.75
7168;BME280;3625;51.762;14.320;2023-07-16T09:13:28;100527.03;;;28.42;47.95
7168;BME280;3625;51.762;14.320;2023-07-16T09:15:58;100523.31;;;28.33;48.66
7168;BME280;3625;51.762;14.320;2023-07-16T09:18:28;100518.47;;;28.27;48.85
7168;BME280;3625;51.762;14.320;2023-07-16T09:20:56;100486.69;;;27.99;48.98
7168;BME280;3625;51.762;14.320;2023-07-16T09:23:26;100511.44;;;28.15;47.14
7168;BME280;3625;51.762;14.320;2023-07-16T09:25:57;100531.63;;;28.22;47.05
7168;BME280;3625;51.762;14.320;2023-07-16T09:28:28;100529.75;;;28.32;46.56
7168;BME280;3625;51.762;14.320;2023-07-16T09:31:03;100537.19;;;28.40;45.96
7168;BME280;3625;51.762;14.320;2023-07-16T09:33:32;100458.78;;;27.68;43.51
7168;BME280;3625;51.762;14.320;2023-07-16T09:36:01;100511.97;;;27.41;44.96
7168;BME280;3625;51.762;14.320;2023-07-16T09:38:31;100521.53;;;27.36;46.18
7168;BME280;3625;51.762;14.320;2023-07-16T09:41:03;100524.50;;;27.92;45.82
7168;BME280;3625;51.762;14.320;2023-07-16T09:43:35;100470.91;;;28.12;43.52
7168;BME280;3625;51.762;14.320;2023-07-16T09:46:07;100511.69;;;28.50;43.76
7168;BME280;3625;51.762;14.320;2023-07-16T09:48:36;100469.38;;;27.90;44.15
7168;BME280;3625;51.762;14.320;2023-07-16T09:51:07;100416.84;;;27.51;45.02
7168;BME280;3625;51.762;14.320;2023-07-16T09:53:41;100532.00;;;28.46;44.81
7168;BME280;3625;51.762;14.320;2023-07-16T09:56:15;100538.00;;;28.79;44.04
7168;BME280;3625;51.762;14.320;2023-07-16T09:58:45;100533.97;;;29.10;43.50
7168;BME280;3625;51.762;14.320;2023-07-16T10:01:15;100500.06;;;28.95;43.34
7168;BME280;3625;51.762;14.320;2023-07-16T10:03:49;100542.28;;;29.09;41.77
7168;BME280;3625;51.762;14.320;2023-07-16T10:06:18;100360.47;;;27.82;43.12
7168;BME280;3625;51.762;14.320;2023-07-16T10:08:50;100539.03;;;28.59;43.49
7168;BME280;3625;51.762;14.320;2023-07-16T10:11:21;100546.91;;;28.62;43.32
7168;BME280;3625;51.762;14.320;2023-07-16T10:13:50;100537.00;;;28.61;43.02
7168;BME280;3625;51.762;14.320;2023-07-16T10:16:22;100540.25;;;28.74;43.04
7168;BME280;3625;51.762;14.320;2023-07-16T10:18:54;100544.28;;;28.70;40.99
7168;BME280;3625;51.762;14.320;2023-07-16T10:21:28;100503.91;;;28.56;41.34
7168;BME280;3625;51.762;14.320;2023-07-16T10:24:16;100543.81;;;28.94;40.95
7168;BME280;3625;51.762;14.320;2023-07-16T10:26:47;100502.31;;;29.00;40.49
7168;BME280;3625;51.762;14.320;2023-07-16T10:29:15;100528.56;;;29.55;39.25
7168;BME280;3625;51.762;14.320;2023-07-16T10:31:46;100523.97;;;29.56;39.33
7168;BME280;3625;51.762;14.320;2023-07-16T10:34:15;100534.72;;;29.57;39.03
7168;BME280;3625;51.762;14.320;2023-07-16T10:36:44;100552.19;;;29.82;38.45
7168;BME280;3625;51.762;14.320;2023-07-16T10:39:14;100561.28;;;30.00;37.86
7168;BME280;3625;51.762;14.320;2023-07-16T10:41:43;100463.22;;;28.91;37.96
7168;BME280;3625;51.762;14.320;2023-07-16T10:44:16;100552.69;;;28.96;39.74
7168;BME280;3625;51.762;14.320;2023-07-16T10:46:44;100566.81;;;28.62;39.66
7168;BME280;3625;51.762;14.320;2023-07-16T10:49:13;100566.25;;;28.59;40.40
7168;BME280;3625;51.762;14.320;2023-07-16T10:51:44;100561.66;;;28.59;40.22
7168;BME280;3625;51.762;14.320;2023-07-16T10:54:12;100570.31;;;28.35;39.38
7168;BME280;3625;51.762;14.320;2023-07-16T10:56:41;100561.44;;;28.33;40.37
7168;BME280;3625;51.762;14.320;2023-07-16T10:59:10;100563.16;;;28.34;38.16
7168;BME280;3625;51.762;14.320;2023-07-16T11:01:41;100556.72;;;28.16;37.33
7168;BME280;3625;51.762;14.320;2023-07-16T11:04:13;100569.88;;;27.92;38.05
7168;BME280;3625;51.762;14.320;2023-07-16T11:06:41;100562.25;;;27.86;38.52
7168;BME280;3625;51.762;14.320;2023-07-16T11:09:11;100572.84;;;27.69;38.52
7168;BME280;3625;51.762;14.320;2023-07-16T11:11:41;100551.53;;;27.74;38.71
7168;BME280;3625;51.762;14.320;2023-07-16T11:14:10;100572.59;;;28.30;38.27
7168;BME280;3625;51.762;14.320;2023-07-16T11:16:40;100432.41;;;28.07;36.09
7168;BME280;3625;51.762;14.320;2023-07-16T11:19:09;100571.63;;;29.52;36.17
7168;BME280;3625;51.762;14.320;2023-07-16T11:21:38;100568.97;;;30.05;35.58
7168;BME280;3625;51.762;14.320;2023-07-16T11:24:10;100480.56;;;29.98;34.99
7168;BME280;3625;51.762;14.320;2023-07-16T11:26:50;100557.13;;;30.14;33.48
7168;BME280;3625;51.762;14.320;2023-07-16T11:29:22;100531.06;;;29.49;33.66
7168;BME280;3625;51.762;14.320;2023-07-16T11:31:53;100555.41;;;29.50;34.37
7168;BME280;3625;51.762;14.320;2023-07-16T11:34:22;100561.72;;;29.51;33.75
7168;BME280;3625;51.762;14.320;2023-07-16T11:36:51;100323.72;;;28.05;34.56
7168;BME280;3625;51.762;14.320;2023-07-16T11:39:20;100554.66;;;29.31;34.36
7168;BME280;3625;51.762;14.320;2023-07-16T11:41:56;100511.16;;;29.11;35.17
7168;BME280;3625;51.762;14.320;2023-07-16T11:44:26;100428.72;;;28.82;33.84
7168;BME280;3625;51.762;14.320;2023-07-16T11:47:01;100554.00;;;29.74;34.46
7168;BME280;3625;51.762;14.320;2023-07-16T11:49:30;100537.03;;;29.52;34.83
7168;BME280;3625;51.762;14.320;2023-07-16T11:51:59;100565.03;;;29.54;34.98
7168;BME280;3625;51.762;14.320;2023-07-16T11:54:28;100392.41;;;28.36;34.67
7168;BME280;3625;51.762;14.320;2023-07-16T11:56:56;100557.81;;;28.99;35.12
7168;BME280;3625;51.762;14.320;2023-07-16T11:59:25;100447.72;;;28.08;35.08
7168;BME280;3625;51.762;14.320;2023-07-16T12:01:53;100555.94;;;28.52;35.17
7168;BME280;3625;51.762;14.320;2023-07-16T12:04:23;100559.69;;;28.42;35.96
7168;BME280;3625;51.762;14.320;2023-07-16T12:06:52;100504.44;;;28.22;35.84
7168;BME280;3625;51.762;14.320;2023-07-16T12:09:20;100536.34;;;28.39;34.84
7168;BME280;3625;51.762;14.320;2023-07-16T12:11:49;100542.97;;;28.18;34.56
7168;BME280;3625;51.762;14.320;2023-07-16T12:14:18;100559.41;;;27.97;35.88
7168;BME280;3625;51.762;14.320;2023-07-16T12:16:46;100398.94;;;27.00;35.52
7168;BME280;3625;51.762;14.320;2023-07-16T12:19:15;100551.97;;;27.99;35.34
7168;BME280;3625;51.762;14.320;2023-07-16T12:21:45;100493.28;;;27.67;35.08
7168;BME280;3625;51.762;14.320;2023-07-16T12:24:14;100523.91;;;27.79;35.55
7168;BME280;3625;51.762;14.320;2023-07-16T12:26:42;100535.91;;;27.76;35.74
7168;BME280;3625;51.762;14.320;2023-07-16T12:29:11;100351.84;;;26.71;34.95
7168;BME280;3625;51.762;14.320;2023-07-16T12:31:39;100544.66;;;27.90;35.28
7168;BME280;3625;51.762;14.320;2023-07-16T12:34:08;100560.00;;;27.91;35.89
7168;BME280;3625;51.762;14.320;2023-07-16T12:36:38;100354.16;;;26.85;34.38
7168;BME280;3625;51.762;14.320;2023-07-16T12:39:09;100561.13;;;28.07;35.35
7168;BME280;3625;51.762;14.320;2023-07-16T12:41:38;100498.72;;;27.67;34.79
7168;BME280;3625;51.762;14.320;2023-07-16T12:44:06;100565.44;;;28.10;35.51
7168;BME280;3625;51.762;14.320;2023-07-16T12:46:35;100557.81;;;28.04;36.00
7168;BME280;3625;51.762;14.320;2023-07-16T12:49:04;100553.41;;;27.93;35.51
7168;BME280;3625;51.762;14.320;2023-07-16T12:51:32;100549.84;;;27.93;35.67
7168;BME280;3625;51.762;14.320;2023-07-16T12:54:01;100547.09;;;28.12;35.40
7168;BME280;3625;51.762;14.320;2023-07-16T12:56:33;100551.28;;;28.16;34.86
7168;BME280;3625;51.762;14.320;2023-07-16T12:59:03;100411.56;;;27.50;35.26
7168;BME280;3625;51.762;14.320;2023-07-16T13:01:31;100553.38;;;28.41;35.18
7168;BME280;3625;51.762;14.320;2023-07-16T13:04:00;100396.94;;;27.51;34.87
7168;BME280;3625;51.762;14.320;2023-07-16T13:06:29;100543.63;;;28.39;34.89
7168;BME280;3625;51.762;14.320;2023-07-16T13:08:57;100544.47;;;28.59;35.27
7168;BME280;3625;51.762;14.320;2023-07-16T13:11:26;100559.31;;;28.83;35.36
7168;BME280;3625;51.762;14.320;2023-07-16T13:13:56;100541.84;;;28.86;34.85
7168;BME280;3625;51.762;14.320;2023-07-16T13:16:24;100548.09;;;28.96;34.58